Time;durP1;ratioP1;P1;durP2;ratioP2;P2;SDS_P1;SDS_P2;PMS_P1;PMS_P2;Temp;Humidity;BMP_temperature;BMP_pressure;BME280_temperature;BME280_humidity;BME280_pressure;Samples;Min_cycle;Max_cycle;Signal;HPM_P1;HPM_P2
2022/05/21 00:01:32;;;;;;;3.63;2.13;;;;;;;11.42;100.00;101738.38;4971648;28;20448;-81
2022/05/21 00:03:57;;;;;;;9.23;2.77;;;;;;;11.27;100.00;101789.38;4973182;28;20228;-79
2022/05/21 00:06:23;;;;;;;4.70;2.50;;;;;;;11.46;100.00;101786.19;4975771;28;20194;-80
2022/05/21 00:08:48;;;;;;;5.03;2.13;;;;;;;11.00;100.00;101737.06;4977913;28;20183;-82
2022/05/21 00:11:14;;;;;;;4.13;2.80;;;;;;;10.74;100.00;101659.59;4969804;28;20213;-81
2022/05/21 00:13:39;;;;;;;7.43;2.67;;;;;;;11.10;100.00;101753.75;4979589;28;20190;-81
2022/05/21 00:16:05;;;;;;;9.93;2.93;;;;;;;11.41;100.00;101767.09;4973933;28;20614;-81
2022/05/21 00:18:31;;;;;;;3.63;2.53;;;;;;;11.44;100.00;101758.66;4969548;28;20268;-81
2022/05/21 00:20:57;;;;;;;5.00;2.50;;;;;;;11.15;100.00;101739.78;4975927;28;20448;-76
2022/05/21 00:23:26;;;;;;;7.87;2.63;;;;;;;11.59;100.00;101784.72;4973082;28;20288;-78
2022/05/21 00:26:05;;;;;;;3.27;2.00;;;;;;;11.36;100.00;101782.91;4972716;28;20296;-77
2022/05/21 00:28:31;;;;;;;4.70;2.20;;;;;;;11.63;100.00;101783.34;4970937;28;20793;-77
2022/05/21 00:30:58;;;;;;;5.87;2.60;;;;;;;11.51;100.00;101775.75;4978406;28;20468;-78
2022/05/21 00:33:24;;;;;;;10.50;2.40;;;;;;;11.59;100.00;101784.72;4987650;28;20448;-77
2022/05/21 00:35:51;;;;;;;12.00;2.80;;;;;;;11.33;100.00;101780.59;4973687;28;20563;-78
2022/05/21 00:38:17;;;;;;;7.93;3.97;;;;;;;11.45;100.00;101780.97;4975867;28;20441;-77
2022/05/21 00:40:43;;;;;;;4.63;2.10;;;;;;;11.48;100.00;101768.00;4978215;28;21000;-77
2022/05/21 00:43:54;;;;;;;3.10;2.27;;;;;;;11.68;100.00;101784.47;4966994;28;20453;-77
2022/05/21 00:46:33;;;;;;;3.67;2.20;;;;;;;11.70;100.00;101803.94;4967733;28;20547;-80
2022/05/21 00:49:06;;;;;;;4.37;2.57;;;;;;;11.30;100.00;101805.94;4970835;28;20802;-76
2022/05/21 00:52:10;;;;;;;7.23;3.20;;;;;;;11.32;100.00;101781.59;4976239;28;20495;-77
2022/05/21 00:54:47;;;;;;;7.57;3.70;;;;;;;11.16;100.00;101774.50;4970241;28;20985;-75
2022/05/21 00:57:30;;;;;;;4.13;2.50;;;;;;;11.25;100.00;101778.81;4976190;28;20437;-77
2022/05/21 01:00:16;;;;;;;7.80;2.70;;;;;;;11.38;100.00;101797.00;4977631;28;20440;-77
2022/05/21 01:02:48;;;;;;;6.70;2.90;;;;;;;11.36;100.00;101784.75;4970473;28;20437;-76
2022/05/21 01:05:16;;;;;;;6.20;3.00;;;;;;;11.17;100.00;101802.22;4975633;28;20476;-77
2022/05/21 01:07:43;;;;;;;5.30;3.50;;;;;;;11.19;100.00;101765.25;4978401;28;20444;-77
2022/05/21 01:10:10;;;;;;;9.30;4.00;;;;;;;10.76;100.00;101689.75;4977688;28;20472;-76
2022/05/21 01:12:40;;;;;;;6.23;3.37;;;;;;;11.15;100.00;101785.44;4975788;28;20468;-78
2022/05/21 01:15:10;;;;;;;5.63;3.23;;;;;;;11.19;100.00;101784.88;4975044;28;20460;-76
2022/05/21 01:17:37;;;;;;;8.60;3.93;;;;;;;10.86;100.00;101752.09;4973155;28;20712;-77
2022/05/21 01:20:08;;;;;;;7.57;4.10;;;;;;;10.99;100.00;101795.28;4974793;28;20450;-77
2022/05/21 01:22:43;;;;;;;10.33;4.70;;;;;;;10.60;100.00;101696.06;4979124;28;20440;-76
2022/05/21 01:25:09;;;;;;;6.53;4.03;;;;;;;10.91;100.00;101738.16;4980766;28;20472;-79
2022/05/21 01:27:35;;;;;;;11.13;4.30;;;;;;;10.59;100.00;101681.84;4972061;28;20437;-77
2022/05/21 01:30:03;;;;;;;6.83;3.77;;;;;;;11.23;100.00;101753.16;4977469;28;20499;-76
2022/05/21 01:32:29;;;;;;;6.60;3.97;;;;;;;11.42;100.00;101744.56;4976312;28;20236;-78
2022/05/21 01:34:56;;;;;;;7.30;4.33;;;;;;;11.10;100.00;101732.25;4977321;28;20469;-78
2022/05/21 01:37:22;;;;;;;10.63;4.70;;;;;;;11.29;100.00;101769.38;4976574;28;20189;-77
2022/05/21 01:39:48;;;;;;;9.03;4.63;;;;;;;11.15;100.00;101737.94;4975164;28;20591;-77
2022/05/21 01:42:13;;;;;;;9.00;5.20;;;;;;;11.23;100.00;101742.41;4978312;28;20480;-77
2022/05/21 01:44:39;;;;;;;12.70;6.13;;;;;;;11.31;100.00;101739.63;4976685;28;20297;-81
2022/05/21 01:47:10;;;;;;;13.90;6.13;;;;;;;10.87;100.00;101662.50;4975214;28;20268;-76
2022/05/21 01:49:37;;;;;;;7.97;5.70;;;;;;;11.17;100.00;101717.13;4971538;28;20197;-77
2022/05/21 01:52:04;;;;;;;12.20;7.50;;;;;;;10.93;100.00;101677.88;4973716;28;20467;-75
2022/05/21 01:54:30;;;;;;;11.23;6.93;;;;;;;11.62;100.00;101768.25;4972645;28;20483;-76
2022/05/21 01:56:56;;;;;;;13.03;7.63;;;;;;;11.68;100.00;101772.88;4977774;28;20864;-77
2022/05/21 01:59:21;;;;;;;12.60;8.20;;;;;;;11.37;100.00;101741.63;4977697;28;20449;-77
2022/05/21 02:01:48;;;;;;;13.23;8.30;;;;;;;10.60;100.00;101624.47;4979672;28;20685;-78
2022/05/21 02:04:14;;;;;;;17.30;9.27;;;;;;;11.59;100.00;101776.66;4978091;28;20205;-77
2022/05/21 02:06:40;;;;;;;12.90;8.77;;;;;;;11.38;100.00;101742.44;4977139;28;20439;-76
2022/05/21 02:09:05;;;;;;;17.20;9.60;;;;;;;11.40;100.00;101754.69;4973793;28;20811;-75
2022/05/21 02:11:31;;;;;;;17.40;9.57;;;;;;;11.38;100.00;101742.44;4974422;28;20694;-76
2022/05/21 02:13:57;;;;;;;17.93;10.03;;;;;;;11.62;100.00;101774.44;4972200;28;20333;-77
2022/05/21 02:16:22;;;;;;;17.13;10.37;;;;;;;11.42;100.00;101738.38;4980594;28;20259;-76
2022/05/21 02:18:48;;;;;;;14.43;9.73;;;;;;;11.72;100.00;101768.81;4981338;28;20197;-76
2022/05/21 02:21:13;;;;;;;17.40;10.27;;;;;;;11.31;100.00;101748.56;4974874;28;20188;-76
2022/05/21 02:23:39;;;;;;;14.10;10.10;;;;;;;11.56;100.00;101768.97;4972822;28;20186;-74
2022/05/21 02:26:05;;;;;;;15.50;10.80;;;;;;;11.64;100.00;101776.97;4972416;28;20708;-76
2022/05/21 02:28:30;;;;;;;15.40;9.80;;;;;;;11.44;100.00;101750.59;4972067;28;20266;-82
2022/05/21 02:30:56;;;;;;;15.30;10.67;;;;;;;11.54;100.00;101772.69;4980843;28;20496;-75
2022/05/21 02:33:21;;;;;;;11.70;10.00;;;;;;;10.54;100.00;101590.31;4974602;28;20186;-78
2022/05/21 02:35:47;;;;;;;15.43;9.80;;;;;;;10.97;100.00;101652.34;4977181;28;20213;-75
2022/05/21 02:40:57;;;;;;;12.60;10.37;;;;;;;11.66;100.00;101767.69;4979217;28;20184;-75
2022/05/21 02:43:22;;;;;;;19.63;10.93;;;;;;;11.79;100.00;101761.69;4974640;28;20964;-75
2022/05/21 02:45:48;;;;;;;15.50;10.43;;;;;;;11.85;100.00;101762.81;4975963;28;20518;-76
2022/05/21 02:48:14;;;;;;;15.63;10.37;;;;;;;11.81;100.00;101778.47;4972271;28;20202;-76
2022/05/21 02:50:41;;;;;;;17.00;11.27;;;;;;;11.46;100.00;101686.78;4972143;28;20563;-75
2022/05/21 02:53:13;;;;;;;19.00;11.30;;;;;;;11.54;100.00;101710.03;4976696;28;20945;-74
2022/05/21 02:55:38;;;;;;;14.77;11.20;;;;;;;11.53;100.00;101713.75;4973444;28;20464;-72
2022/05/21 02:58:03;;;;;;;13.47;10.87;;;;;;;11.50;100.00;101696.13;4973652;28;20442;-75
2022/05/21 03:00:30;;;;;;;19.27;13.17;;;;;;;11.75;100.00;101752.31;4968202;28;20221;-73
2022/05/21 03:02:56;;;;;;;18.93;12.93;;;;;;;11.82;100.00;101753.25;4974362;28;20654;-73
2022/05/21 03:05:23;;;;;;;19.33;13.37;;;;;;;11.69;100.00;101735.09;4975967;28;20980;-73
2022/05/21 03:07:50;;;;;;;19.33;13.97;;;;;;;11.82;100.00;101757.78;4980274;28;20444;-76
2022/05/21 03:10:20;;;;;;;15.00;12.60;;;;;;;11.90;100.00;101752.38;4977396;28;20437;-76
2022/05/21 03:13:04;;;;;;;19.63;15.37;;;;;;;11.83;100.00;101749.56;4972403;28;20450;-76
2022/05/21 03:15:37;;;;;;;24.47;15.90;;;;;;;11.91;100.00;101751.34;4970434;28;20500;-78
2022/05/21 03:18:05;;;;;;;24.03;17.00;;;;;;;11.87;100.00;101760.81;4989083;28;20449;-77
2022/05/21 03:20:31;;;;;;;26.30;18.80;;;;;;;11.91;100.00;101748.66;4973975;28;20834;-84
2022/05/21 03:22:56;;;;;;;20.70;16.33;;;;;;;11.63;100.00;101700.03;4976719;28;20444;-77
2022/05/21 03:25:23;;;;;;;23.70;17.20;;;;;;;11.72;100.00;101693.56;4986880;23;20647;-77
2022/05/21 03:27:49;;;;;;;25.00;18.50;;;;;;;11.20;100.00;101646.09;4972627;28;20190;-77
2022/05/21 03:30:20;;;;;;;25.37;18.10;;;;;;;12.07;100.00;101759.22;4971405;28;20441;-77
2022/05/21 03:32:46;;;;;;;26.20;17.70;;;;;;;11.54;100.00;101681.34;4971482;28;20550;-76
2022/05/21 03:35:12;;;;;;;23.90;17.00;;;;;;;12.09;100.00;101762.56;4975846;28;20460;-76
2022/05/21 03:37:39;;;;;;;32.97;17.07;;;;;;;12.07;100.00;101759.22;4970807;28;20552;-76
2022/05/21 03:40:07;;;;;;;23.67;16.50;;;;;;;12.16;100.00;101758.09;4975588;28;20961;-76
2022/05/21 03:42:32;;;;;;;28.97;18.10;;;;;;;11.50;100.00;101644.25;4969756;28;20438;-79
2022/05/21 03:44:57;;;;;;;21.87;14.97;;;;;;;11.51;100.00;101633.34;4972253;28;20514;-77
2022/05/21 03:47:23;;;;;;;23.80;16.90;;;;;;;12.08;100.00;101752.81;4967851;28;20193;-77
2022/05/21 03:49:48;;;;;;;25.43;14.60;;;;;;;11.27;100.00;101594.16;4973051;28;20190;-78
2022/05/21 03:52:14;;;;;;;21.00;15.40;;;;;;;11.91;100.00;101701.09;4974050;28;20204;-78
2022/05/21 03:54:39;;;;;;;23.47;15.00;;;;;;;12.19;100.00;101755.03;4972636;28;20292;-77
2022/05/21 03:57:05;;;;;;;22.00;12.10;;;;;;;12.22;100.00;101732.31;4971635;28;20204;-76
2022/05/21 03:59:32;;;;;;;26.50;13.40;;;;;;;12.30;100.00;101751.03;4971541;28;20185;-77
2022/05/21 04:01:58;;;;;;;21.90;12.23;;;;;;;11.55;100.00;101623.06;4971524;28;20452;-77
2022/05/21 04:04:23;;;;;;;17.20;11.80;;;;;;;12.46;100.00;101766.13;4970765;28;20555;-76
2022/05/21 04:06:48;;;;;;;21.77;12.10;;;;;;;11.98;100.00;101677.00;4974135;28;20197;-77
2022/05/21 04:09:14;;;;;;;21.17;11.23;;;;;;;12.48;100.00;101749.81;4972754;28;20196;-78
2022/05/21 04:11:40;;;;;;;17.83;10.57;;;;;;;12.56;100.00;101750.53;4970830;28;20292;-78
2022/05/21 04:14:07;;;;;;;17.47;9.67;;;;;;;12.67;100.00;101773.44;4970485;28;20447;-77
2022/05/21 04:16:33;;;;;;;17.60;8.50;;;;;;;12.73;100.00;101763.72;4980369;28;20190;-78
2022/05/21 04:18:58;;;;;;;18.20;8.13;;;;;;;12.69;100.00;101740.91;4975303;28;20875;-78
2022/05/21 04:21:26;;;;;;;19.63;8.03;;;;;;;12.79;100.00;101758.44;4973690;28;20521;-77
2022/05/21 04:23:51;;;;;;;14.93;7.23;;;;;;;12.69;100.00;101749.81;4977545;28;20217;-76
2022/05/21 04:26:17;;;;;;;14.50;6.60;;;;;;;12.76;100.00;101728.38;4976587;28;20594;-78
2022/05/21 04:28:42;;;;;;;15.00;5.90;;;;;;;12.99;100.00;101763.16;4969000;28;20522;-77
2022/05/21 04:31:08;;;;;;;18.13;6.23;;;;;;;12.09;100.00;101628.13;4971166;28;20209;-79
2022/05/21 04:33:33;;;;;;;15.17;5.87;;;;;;;12.41;100.00;101669.00;4972658;28;20277;-78
2022/05/21 04:38:43;;;;;;;14.77;5.60;;;;;;;12.28;100.00;101656.25;4969179;28;20205;-78
2022/05/21 04:41:08;;;;;;;13.80;5.43;;;;;;;13.10;100.00;101766.22;4970186;28;20456;-81
2022/05/21 04:43:34;;;;;;;15.23;4.97;;;;;;;12.60;100.00;101683.69;4973295;28;20233;-78
2022/05/21 04:45:59;;;;;;;11.10;5.20;;;;;;;13.10;100.00;101771.59;4971098;28;20296;-81
2022/05/21 04:48:24;;;;;;;15.67;4.67;;;;;;;12.74;100.00;101720.47;4972379;28;20190;-84
2022/05/21 04:50:50;;;;;;;16.73;4.37;;;;;;;12.45;100.00;101646.06;4975082;28;20213;-85
2022/05/21 04:53:15;;;;;;;12.80;4.60;;;;;;;12.60;100.00;101679.13;4968407;28;20221;-83
2022/05/21 04:55:41;;;;;;;14.30;3.53;;;;;;;12.72;100.00;101710.94;4966678;28;20211;-83
2022/05/21 04:58:06;;;;;;;14.40;4.10;;;;;;;12.89;100.00;101729.31;4970834;28;20268;-83
2022/05/21 05:00:32;;;;;;;10.27;4.80;;;;;;;12.55;100.00;101676.19;4973567;28;20577;-83
2022/05/21 05:02:58;;;;;;;11.10;3.70;;;;;;;12.75;100.00;101689.84;4970903;28;20201;-83
2022/05/21 05:05:23;;;;;;;16.70;3.97;;;;;;;12.32;100.00;101622.53;4973043;28;20473;-82
2022/05/21 05:07:49;;;;;;;13.57;4.13;;;;;;;13.27;100.00;101769.47;4968275;28;20214;-83
2022/05/21 05:10:14;;;;;;;14.00;3.70;;;;;;;13.29;100.00;101759.34;4975595;28;20336;-81
2022/05/21 05:12:40;;;;;;;11.87;3.30;;;;;;;13.01;100.00;101701.88;4971070;28;20213;-82
2022/05/21 05:15:06;;;;;;;10.03;3.30;;;;;;;13.15;100.00;101713.59;4973711;28;20244;-83
2022/05/21 05:17:31;;;;;;;10.53;3.40;;;;;;;13.28;100.00;101724.53;4964694;28;20272;-81
2022/05/21 05:19:59;;;;;;;10.00;3.00;;;;;;;13.55;100.00;101766.00;4972489;28;20923;-85
2022/05/21 05:22:24;;;;;;;13.40;3.23;;;;;;;12.62;100.00;101630.50;4974304;28;20190;-84
2022/05/21 05:24:50;;;;;;;12.30;3.30;;;;;;;12.65;100.00;101622.03;4981100;28;20507;-80
2022/05/21 05:27:16;;;;;;;10.50;2.73;;;;;;;13.62;100.00;101769.56;4974398;28;20224;-84
2022/05/21 05:29:41;;;;;;;10.33;2.80;;;;;;;12.76;100.00;101626.09;4980418;28;20272;-81
2022/05/21 05:32:07;;;;;;;10.67;2.60;;;;;;;12.83;100.00;101665.47;4979759;28;20201;-80
2022/05/21 05:34:33;;;;;;;11.60;2.57;;;;;;;13.05;100.00;101708.56;4976906;28;20214;-85
2022/05/21 05:36:58;;;;;;;7.60;2.27;;;;;;;12.55;100.00;101667.28;4981455;28;20443;-86
2022/05/21 05:39:24;;;;;;;10.33;2.90;;;;;;;13.21;100.00;101758.63;4982413;28;20456;-86
2022/05/21 05:41:51;;;;;;;9.33;2.77;;;;;;;12.87;100.00;101749.38;4982183;28;20178;-78
2022/05/21 05:44:17;;;;;;;7.50;2.90;;;;;;;12.23;100.00;101645.22;4975639;28;20198;-77
2022/05/21 05:46:42;;;;;;;8.90;2.30;;;;;;;12.75;100.00;101721.31;4974211;28;20825;-80
2022/05/21 05:49:08;;;;;;;7.60;2.83;;;;;;;12.62;100.00;101735.47;4977832;28;20560;-81
2022/05/21 05:51:34;;;;;;;11.43;3.30;;;;;;;12.31;100.00;101660.41;4980128;28;20230;-89
2022/05/21 05:53:59;;;;;;;8.03;2.80;;;;;;;12.71;100.00;101741.56;4996989;28;20543;-85
2022/05/21 05:56:29;;;;;;;14.33;3.33;;;;;;;12.65;100.00;101737.78;4978923;28;20551;-87
2022/05/21 06:01:39;;;;;;;12.90;2.80;;;;;;;12.76;100.00;101760.69;4976910;28;20476;-92
2022/05/21 06:04:04;;;;;;;14.70;3.13;;;;;;;13.07;100.00;101782.72;4981296;28;20465;-90
2022/05/21 06:06:31;;;;;;;14.50;2.73;;;;;;;12.59;100.00;101703.56;4981978;28;20189;-88
2022/05/21 06:08:57;;;;;;;9.90;2.83;;;;;;;13.39;100.00;101804.00;4981772;28;20626;-88
2022/05/21 06:11:22;;;;;;;9.83;3.20;;;;;;;12.65;100.00;101684.78;4977279;28;20594;-85
2022/05/21 06:13:48;;;;;;;10.87;3.00;;;;;;;13.56;100.00;101818.84;4979545;28;20449;-89
2022/05/21 06:16:15;;;;;;;16.00;3.73;;;;;;;13.16;100.00;101755.66;4984737;28;20765;-92
2022/05/21 06:18:41;;;;;;;17.23;3.60;;;;;;;12.76;100.00;101701.47;4983755;28;20194;-87
2022/05/21 06:21:07;;;;;;;9.90;2.63;;;;;;;13.24;100.00;101775.22;4989422;28;21024;-93
2022/05/21 06:23:33;;;;;;;13.50;2.93;;;;;;;13.36;100.00;101799.00;4988879;28;20528;-90
2022/05/21 06:26:00;;;;;;;10.23;2.83;;;;;;;12.05;100.00;101577.56;4982620;28;20217;-88
2022/05/21 06:28:26;;;;;;;11.27;3.13;;;;;;;13.10;100.00;101720.44;4981860;28;20449;-85
2022/05/21 06:30:52;;;;;;;8.63;2.70;;;;;;;13.07;100.00;101701.09;4985011;28;21015;-90
2022/05/21 06:33:26;;;;;;;13.97;3.33;;;;;;;13.57;100.00;101789.03;4981538;28;20437;-92
2022/05/21 06:36:10;;;;;;;17.20;3.00;;;;;;;13.77;100.00;101772.16;4978306;28;20244;-87
2022/05/21 06:38:37;;;;;;;13.00;3.50;;;;;;;13.82;100.00;101793.13;4979345;28;21037;-88
2022/05/21 06:41:03;;;;;;;8.80;2.43;;;;;;;13.31;100.00;101722.28;4979418;28;20945;-88
2022/05/21 06:43:28;;;;;;;8.33;2.90;;;;;;;13.91;100.00;101778.47;4983307;28;20452;-87
2022/05/21 06:45:54;;;;;;;12.90;3.00;;;;;;;13.99;100.00;101799.88;4973346;28;20457;-86
2022/05/21 06:48:19;;;;;;;11.50;2.90;;;;;;;13.62;100.00;101726.41;4980368;28;20193;-85
2022/05/21 06:50:45;;;;;;;10.40;2.70;;;;;;;14.19;100.00;101800.84;4977890;28;20205;-89
2022/05/21 06:53:11;;;;;;;10.97;2.70;;;;;;;13.90;100.00;101785.72;4979470;28;20197;-90
2022/05/21 06:55:38;;;;;;;12.90;3.50;;;;;;;13.27;100.00;101683.25;4977824;28;20464;-88
2022/05/21 06:58:03;;;;;;;4.87;2.17;;;;;;;13.91;100.00;101784.69;4976178;28;20193;-84
2022/05/21 07:00:28;;;;;;;11.10;2.90;;;;;;;13.19;100.00;101693.31;4976089;28;22303;-86
2022/05/21 07:02:54;;;;;;;12.37;3.20;;;;;;;13.50;100.00;101745.00;4983006;28;20182;-88
2022/05/21 07:08:31;;;;;;;13.93;3.20;;;;;;;13.91;100.00;101813.53;4942205;28;20201;-87
2022/05/21 07:10:57;;;;;;;10.33;2.57;;;;;;;13.98;100.00;101817.13;4972801;28;20468;-87
2022/05/21 07:13:24;;;;;;;8.73;2.87;;;;;;;14.00;100.00;101823.13;4971508;28;20981;-90
2022/05/21 07:15:50;;;;;;;8.00;2.40;;;;;;;13.47;100.00;101710.34;4973752;28;20214;-85
2022/05/21 07:18:18;;;;;;;8.70;3.03;;;;;;;14.30;100.00;101820.22;4972453;28;21411;-86
2022/05/21 07:20:44;;;;;;;9.70;2.67;;;;;;;14.14;100.00;101814.09;4972975;28;20195;-84
2022/05/21 07:23:10;;;;;;;8.70;2.50;;;;;;;13.59;100.00;101718.72;4973400;28;20953;-86
2022/05/21 07:25:36;;;;;;;11.87;2.97;;;;;;;13.22;100.00;101687.53;4972907;28;20536;-86
2022/05/21 07:28:01;;;;;;;6.87;2.37;;;;;;;13.41;100.00;101704.94;4973831;28;20193;-85
2022/05/21 07:30:28;;;;;;;8.90;2.60;;;;;;;14.20;100.00;101831.34;4977516;28;20197;-90
2022/05/21 07:32:55;;;;;;;9.80;2.57;;;;;;;14.24;100.00;101841.56;4980676;28;20548;-87
2022/05/21 07:35:22;;;;;;;12.13;2.43;;;;;;;14.34;100.00;101830.38;4978813;28;20457;-84
2022/05/21 07:37:48;;;;;;;9.83;2.37;;;;;;;13.62;100.00;101707.56;4980974;28;20503;-88
2022/05/21 07:40:16;;;;;;;7.50;2.20;;;;;;;14.69;100.00;101827.66;4980968;28;20846;-85
2022/05/21 07:42:42;;;;;;;9.53;2.70;;;;;;;13.86;100.00;101752.09;4984679;28;20178;-81
2022/05/21 07:45:09;;;;;;;13.03;2.83;;;;;;;13.99;100.00;101779.13;4974175;28;20471;-87
2022/05/21 07:47:35;;;;;;;10.80;2.43;;;;;;;14.00;100.00;101758.38;4977498;28;20200;-86
2022/05/21 07:50:00;;;;;;;13.30;2.53;;;;;;;14.35;100.00;101810.47;4977547;28;20449;-84
2022/05/21 07:52:28;;;;;;;8.47;1.93;;;;;;;14.60;100.00;101823.47;4972954;28;20316;-87
2022/05/21 07:54:54;;;;;;;9.97;2.40;;;;;;;14.57;100.00;101840.09;4977428;28;20356;-82
2022/05/21 07:57:20;;;;;;;7.10;2.43;;;;;;;12.92;100.00;101576.50;4969067;28;20441;-86
2022/05/21 07:59:45;;;;;;;11.70;3.00;;;;;;;14.05;100.00;101738.91;4973613;28;20942;-83
2022/05/21 08:02:14;;;;;;;10.23;2.83;;;;;;;14.46;100.00;101818.00;4976627;28;20189;-88
2022/05/21 08:04:40;;;;;;;12.93;3.20;;;;;;;13.95;100.00;101750.09;4980388;28;20220;-78
2022/05/21 08:07:05;;;;;;;10.73;2.50;;;;;;;14.55;100.00;101856.50;4977393;28;20445;-87
2022/05/21 08:09:31;;;;;;;9.50;2.50;;;;;;;13.85;100.00;101709.16;4979040;28;20193;-88
2022/05/21 08:11:56;;;;;;;7.00;2.37;;;;;;;14.12;100.00;101718.22;4978302;28;20214;-85
2022/05/21 08:14:23;;;;;;;8.87;1.70;;;;;;;14.66;100.00;101874.81;4978598;28;20218;-83
2022/05/21 08:16:49;;;;;;;10.20;2.17;;;;;;;14.89;100.00;101865.56;4977174;28;20211;-86
2022/05/21 08:19:15;;;;;;;8.37;2.50;;;;;;;14.10;100.00;101766.97;4980662;28;20445;-86
2022/05/21 08:21:40;;;;;;;10.97;2.50;;;;;;;14.01;100.00;101742.00;4976581;28;20491;-79
2022/05/21 08:26:56;;;;;;;7.97;2.53;;;;;;;14.77;100.00;101845.56;4981807;28;20686;-85
2022/05/21 08:29:27;;;;;;;8.60;2.00;;;;;;;14.47;100.00;101775.66;4982499;28;20433;-83
2022/05/21 08:31:54;;;;;;;16.27;2.50;;;;;;;14.81;100.00;101836.03;4981952;28;20475;-78
2022/05/21 08:34:21;;;;;;;9.10;2.70;;;;;;;14.72;100.00;101807.53;4981725;28;20444;-81
2022/05/21 08:36:47;;;;;;;7.27;1.90;;;;;;;14.42;100.00;101714.16;4974122;28;20440;-77
2022/05/21 08:39:13;;;;;;;10.43;3.13;;;;;;;14.50;100.00;101739.31;4977310;28;20468;-75
2022/05/21 08:41:52;;;;;;;8.80;2.20;;;;;;;15.21;100.00;101863.16;4975097;28;20447;-79
2022/05/21 08:44:58;;;;;;;11.87;3.43;;;;;;;15.25;100.00;101862.56;4978156;28;20440;-84
2022/05/21 08:47:30;;;;;;;9.97;2.23;;;;;;;14.53;100.00;101758.69;4940492;28;20517;-84
2022/05/21 08:50:01;;;;;;;12.53;2.50;;;;;;;14.44;100.00;101765.25;4976509;28;20903;-85
2022/05/21 08:52:37;;;;;;;6.50;1.97;;;;;;;15.24;100.00;101860.88;4978463;28;20836;-79
2022/05/21 08:55:05;;;;;;;9.30;2.50;;;;;;;15.18;100.00;101872.50;4981116;28;20452;-80
2022/05/21 08:57:43;;;;;;;9.40;1.67;;;;;;;15.22;100.00;101821.59;4980883;28;20452;-77
2022/05/21 09:00:11;;;;;;;7.60;2.03;;;;;;;15.38;100.00;101872.56;4977111;28;20455;-87
2022/05/21 09:02:37;;;;;;;10.20;2.57;;;;;;;15.38;100.00;101826.59;4993211;28;20548;-82
2022/05/21 09:05:06;;;;;;;11.13;2.50;;;;;;;15.74;100.00;101863.28;4985439;28;20980;-80
2022/05/21 09:08:02;;;;;;;5.47;1.50;;;;;;;15.45;100.00;101813.94;4977198;28;20471;-84
2022/05/21 09:10:50;;;;;;;9.83;1.90;;;;;;;15.46;100.00;101885.88;4957186;28;20456;-79
2022/05/21 09:13:41;;;;;;;6.80;2.30;;;;;;;15.70;100.00;101873.66;4978971;28;20531;-82
2022/05/21 09:18:55;;;;;;;10.87;2.33;;;;;;;15.23;100.00;101880.84;4979888;28;20424;-81
2022/05/21 09:21:23;;;;;;;12.57;2.73;;;;;;;15.12;100.00;101866.03;4979652;28;20432;-82
2022/05/21 09:23:52;;;;;;;10.83;2.20;;;;;;;15.27;100.00;101897.47;4991633;28;20544;-77
2022/05/21 09:26:21;;;;;;;11.03;2.50;;;;;;;15.49;100.00;101885.47;4994598;23;21019;-79
2022/05/21 09:28:48;;;;;;;7.37;3.10;;;;;;;15.47;100.00;101851.56;5003151;28;20502;-78
2022/05/21 09:31:20;;;;;;;9.07;2.40;;;;;;;15.53;100.00;101881.28;5009083;28;20864;-81
2022/05/21 09:33:46;;;;;;;6.00;1.90;;;;;;;15.40;100.00;101813.72;5004738;28;20497;-80
2022/05/21 09:36:32;;;;;;;7.07;2.10;;;;;;;15.44;100.00;101893.34;4983422;28;20457;-75
2022/05/21 09:38:57;;;;;;;7.30;2.20;;;;;;;15.36;100.00;101896.25;4976560;28;20440;-75
2022/05/21 09:41:28;;;;;;;8.27;2.70;;;;;;;15.55;100.00;101900.88;4973458;28;20471;-75
2022/05/21 09:46:46;;;;;;;10.07;2.30;;;;;;;15.79;100.00;101904.03;4976956;28;20826;-73
2022/05/21 09:49:21;;;;;;;9.97;2.50;;;;;;;15.66;100.00;101920.25;4981061;28;20453;-79
2022/05/21 09:52:05;;;;;;;10.93;3.10;;;;;;;15.68;100.00;101904.66;4980662;28;20473;-79
2022/05/21 09:54:40;;;;;;;10.17;2.87;;;;;;;16.12;100.00;101908.63;4976864;28;20868;-76
2022/05/21 09:57:20;;;;;;;10.03;2.60;;;;;;;15.79;100.00;101901.31;4976258;28;20457;-80
2022/05/21 10:00:02;;;;;;;5.80;2.03;;;;;;;15.51;100.00;101934.78;4968296;28;20503;-78
2022/05/21 10:02:40;;;;;;;9.00;3.37;;;;;;;15.52;100.00;101927.50;4970186;28;20440;-81
2022/05/21 10:05:08;;;;;;;8.07;2.10;;;;;;;15.38;100.00;101891.47;4986386;28;21005;-81
2022/05/21 10:13:19;;;;;;;10.93;2.90;;;;;;;15.36;100.00;101932.25;4969779;28;20444;-79
2022/05/21 10:15:51;;;;;;;5.10;1.73;;;;;;;15.48;100.00;101912.72;4975380;28;20465;-80
2022/05/21 10:18:31;;;;;;;6.73;1.77;;;;;;;15.81;100.00;101923.59;4966642;28;20433;-77
2022/05/21 10:21:03;;;;;;;14.47;2.97;;;;;;;15.68;100.00;101899.25;4973823;28;20433;-78
2022/05/21 10:23:59;;;;;;;10.03;1.97;;;;;;;15.80;100.00;101936.31;4968332;28;20434;-78
2022/05/21 10:26:50;;;;;;;10.80;2.13;;;;;;;15.69;100.00;101934.22;4974593;28;21170;-79
2022/05/21 10:29:39;;;;;;;7.90;1.90;;;;;;;15.43;100.00;101953.88;4976150;28;20488;-77
2022/05/21 10:32:29;;;;;;;11.77;2.90;;;;;;;15.64;100.00;101946.66;4976398;28;20484;-79
2022/05/21 10:35:16;;;;;;;7.30;1.90;;;;;;;15.57;100.00;101952.06;4982493;28;20460;-79
2022/05/21 10:38:03;;;;;;;9.03;2.63;;;;;;;15.56;100.00;101955.78;4984046;28;20437;-80
2022/05/21 10:40:50;;;;;;;9.90;2.60;;;;;;;15.76;100.00;101964.78;4985907;28;20425;-82
2022/05/21 10:43:33;;;;;;;9.80;2.50;;;;;;;15.93;100.00;101959.00;4981911;28;20429;-81
2022/05/21 10:46:01;;;;;;;11.10;2.80;;;;;;;16.02;100.00;101944.22;4981785;28;20524;-81
2022/05/21 10:48:48;;;;;;;8.73;2.23;;;;;;;15.66;100.00;101948.09;4982545;28;20556;-80
2022/05/21 10:51:38;;;;;;;9.80;2.57;;;;;;;15.77;100.00;101931.31;4985215;28;20464;-81
2022/05/21 10:54:35;;;;;;;11.77;2.60;;;;;;;15.76;100.00;101963.97;4983453;28;20916;-81
2022/05/21 10:57:34;;;;;;;9.10;1.93;;;;;;;15.84;100.00;101957.53;4983391;28;20437;-78
2022/05/21 11:00:47;;;;;;;7.60;1.93;;;;;;;15.75;100.00;101951.47;4984446;28;20628;-80
2022/05/21 11:03:28;;;;;;;7.43;2.07;;;;;;;16.23;100.00;101937.78;4976978;28;20961;-79
2022/05/21 11:06:15;;;;;;;8.33;1.87;;;;;;;16.13;100.00;101940.06;4982942;28;20445;-80
2022/05/21 11:09:15;;;;;;;8.30;2.20;;;;;;;16.28;100.00;101932.53;4983482;28;20412;-78
2022/05/21 11:11:59;;;;;;;9.00;2.13;;;;;;;16.46;100.00;101943.56;4974494;28;20485;-80
2022/05/21 11:14:43;;;;;;;8.23;2.17;;;;;;;16.49;100.00;101940.44;4983435;28;20556;-81
2022/05/21 11:17:49;;;;;;;9.53;2.20;;;;;;;16.75;100.00;101937.84;4982011;28;20572;-78
2022/05/21 11:20:37;;;;;;;9.60;1.70;;;;;;;16.34;100.00;101953.34;4985356;28;20437;-78
2022/05/21 11:23:29;;;;;;;9.47;1.90;;;;;;;16.49;100.00;101956.69;4983982;28;20694;-78
2022/05/21 11:26:08;;;;;;;17.00;2.57;;;;;;;16.20;100.00;101913.81;4984244;28;20551;-80
2022/05/21 11:28:46;;;;;;;8.03;2.20;;;;;;;16.77;100.00;101965.59;4981313;28;20439;-78
2022/05/21 11:37:20;;;;;;;5.93;2.40;;;;;;;16.26;100.00;101949.00;4981694;28;20461;-76
2022/05/21 11:39:42;;;;;;;7.90;2.43;;;;;;;15.79;100.00;101876.97;4984405;28;20452;-78
2022/05/21 11:42:12;;;;;;;9.23;2.13;;;;;;;16.53;100.00;101956.25;4982994;28;20441;-81
2022/05/21 11:44:56;;;;;;;9.17;2.27;;;;;;;16.36;100.00;101926.06;4984509;28;20174;-80
2022/05/21 11:47:21;;;;;;;10.80;2.37;;;;;;;16.44;100.00;101972.72;4979144;28;20512;-80
2022/05/21 11:50:03;;;;;;;6.73;1.83;;;;;;;16.65;100.00;101965.41;4977445;28;20913;-88
2022/05/21 11:52:32;;;;;;;6.00;1.77;;;;;;;17.03;100.00;101965.53;4979342;28;20216;-78
2022/05/21 11:54:57;;;;;;;6.10;1.70;;;;;;;16.73;100.00;101963.28;4985295;28;20460;-81
2022/05/21 11:57:38;;;;;;;5.20;1.80;;;;;;;16.66;100.00;101977.88;4986606;28;20451;-79